Terminal Aerodrome Forecast
Issued by NWS

Home | Current Version | Previous Version | Text Only | Print | Product List | Glossary On
Versions: 1 2 3 4 5 6 7 8 9 10 11 12 13
000
FTAK31 PAJN 311121
TAFAKT
TAF
PAKT 311121Z 3112/0112 13005KT P6SM VCSH BKN050 OVC080
     FM311500 13008KT P6SM -RA BKN035 OVC050
     FM312000 13012G20KT P6SM -RA BKN025 OVC035
     FM010300 14010G16KT 5SM -RA BR BKN015 OVC025
      AMD LTD TO CLD VIS AND WIND 3112/3115=

USA.gov is the U.S. government's official web portal to all federal, state and local government web resources and services.